Terminal Aerodrome Forecast
Issued by NWS Billings, MT

Home | Current Version | Previous Version | Text Only | Print | Product List | Glossary Off
Versions: 1 2 3 4 5 6 7 8 9 10 11 12 13 14 15 16 17 18 19 20 21 22 23 24

251
FTUS45 KBYZ 171125
TAFMLS
TAF
KMLS 171125Z 1712/1812 VRB05KT P6SM VCSH BKN100
     FM172000 25012KT P6SM SCT050 BKN100
     FM180000 29012KT P6SM SCT050 BKN120
     FM180300 25012KT P6SM BKN050=

USA.gov is the U.S. government's official web portal to all federal, state and local government web resources and services.